sensor_id;sensor_type;location;lat;lon;timestamp;pressure;altitude;pressure_sealevel;temperature;humidity
61478;BME280;47345;52.334;10.392;2024-02-14T00:00:00;100980.19;;;5.90;77.60
61478;BME280;47345;52.334;10.392;2024-02-14T00:02:30;100976.60;;;5.91;77.40
61478;BME280;47345;52.334;10.392;2024-02-14T00:05:01;100976.05;;;5.95;77.32
61478;BME280;47345;52.334;10.392;2024-02-14T00:07:32;100973.30;;;5.98;77.44
61478;BME280;47345;52.334;10.392;2024-02-14T00:10:03;100973.73;;;5.99;77.24
61478;BME280;47345;52.334;10.392;2024-02-14T00:12:35;100972.90;;;6.00;77.30
61478;BME280;47345;52.334;10.392;2024-02-14T00:15:08;100969.45;;;6.02;77.35
61478;BME280;47345;52.334;10.392;2024-02-14T00:17:39;100964.84;;;6.03;77.25
61478;BME280;47345;52.334;10.392;2024-02-14T00:20:11;100960.80;;;6.03;77.33
61478;BME280;47345;52.334;10.392;2024-02-14T00:22:42;100964.53;;;6.04;77.48
61478;BME280;47345;52.334;10.392;2024-02-14T00:25:13;100961.95;;;6.04;77.37
61478;BME280;47345;52.334;10.392;2024-02-14T00:27:48;100963.17;;;6.05;77.42
61478;BME280;47345;52.334;10.392;2024-02-14T00:30:19;100956.93;;;6.06;77.52
61478;BME280;47345;52.334;10.392;2024-02-14T00:32:52;100955.40;;;6.07;77.58
61478;BME280;47345;52.334;10.392;2024-02-14T00:35:23;100950.98;;;6.07;77.80
61478;BME280;47345;52.334;10.392;2024-02-14T00:37:54;100946.42;;;6.09;77.78
61478;BME280;47345;52.334;10.392;2024-02-14T00:40:24;100941.80;;;6.10;77.80
61478;BME280;47345;52.334;10.392;2024-02-14T00:42:55;100941.95;;;6.10;77.86
61478;BME280;47345;52.334;10.392;2024-02-14T00:45:26;100936.98;;;6.11;77.89
61478;BME280;47345;52.334;10.392;2024-02-14T00:47:56;100935.29;;;6.10;78.11
61478;BME280;47345;52.334;10.392;2024-02-14T00:50:27;100939.50;;;6.09;77.99
61478;BME280;47345;52.334;10.392;2024-02-14T00:52:58;100937.77;;;6.09;78.07
61478;BME280;47345;52.334;10.392;2024-02-14T00:55:28;100936.17;;;6.07;78.20
61478;BME280;47345;52.334;10.392;2024-02-14T00:57:58;100936.31;;;6.05;78.25
61478;BME280;47345;52.334;10.392;2024-02-14T01:00:29;100931.84;;;6.03;78.29
61478;BME280;47345;52.334;10.392;2024-02-14T01:03:05;100929.50;;;6.01;78.56
61478;BME280;47345;52.334;10.392;2024-02-14T01:05:36;100931.60;;;6.00;78.50
61478;BME280;47345;52.334;10.392;2024-02-14T01:08:07;100931.27;;;6.00;78.76
61478;BME280;47345;52.334;10.392;2024-02-14T01:10:38;100924.13;;;6.01;78.59
61478;BME280;47345;52.334;10.392;2024-02-14T01:13:08;100921.79;;;5.99;78.66
61478;BME280;47345;52.334;10.392;2024-02-14T01:15:39;100918.42;;;6.02;78.53
61478;BME280;47345;52.334;10.392;2024-02-14T01:18:10;100918.23;;;6.03;78.61
61478;BME280;47345;52.334;10.392;2024-02-14T01:20:41;100917.98;;;6.06;78.60
61478;BME280;47345;52.334;10.392;2024-02-14T01:23:12;100914.52;;;6.08;78.45
61478;BME280;47345;52.334;10.392;2024-02-14T01:25:42;100914.55;;;6.09;78.47
61478;BME280;47345;52.334;10.392;2024-02-14T01:28:13;100904.95;;;6.09;78.55
61478;BME280;47345;52.334;10.392;2024-02-14T01:30:44;100903.81;;;6.10;78.43
61478;BME280;47345;52.334;10.392;2024-02-14T01:33:14;100900.42;;;6.07;78.46
61478;BME280;47345;52.334;10.392;2024-02-14T01:35:46;100898.42;;;6.06;78.52
61478;BME280;47345;52.334;10.392;2024-02-14T01:38:16;100890.04;;;6.05;78.53
61478;BME280;47345;52.334;10.392;2024-02-14T01:40:47;100882.11;;;6.03;78.40
61478;BME280;47345;52.334;10.392;2024-02-14T01:43:18;100884.11;;;6.01;78.41
61478;BME280;47345;52.334;10.392;2024-02-14T01:45:49;100875.95;;;5.98;78.48
61478;BME280;47345;52.334;10.392;2024-02-14T01:48:20;100874.85;;;5.98;78.66
61478;BME280;47345;52.334;10.392;2024-02-14T01:50:51;100873.74;;;5.96;78.50
61478;BME280;47345;52.334;10.392;2024-02-14T01:53:21;100874.93;;;5.96;78.56
61478;BME280;47345;52.334;10.392;2024-02-14T01:55:53;100872.19;;;5.94;78.60
61478;BME280;47345;52.334;10.392;2024-02-14T01:58:23;100872.59;;;5.94;78.73
61478;BME280;47345;52.334;10.392;2024-02-14T02:00:54;100871.63;;;5.94;78.92
61478;BME280;47345;52.334;10.392;2024-02-14T02:03:29;100870.09;;;5.97;78.79
61478;BME280;47345;52.334;10.392;2024-02-14T02:06:02;100865.70;;;5.99;78.66
61478;BME280;47345;52.334;10.392;2024-02-14T02:08:33;100867.80;;;6.01;78.59
61478;BME280;47345;52.334;10.392;2024-02-14T02:11:05;100861.63;;;6.04;78.81
61478;BME280;47345;52.334;10.392;2024-02-14T02:13:35;100859.77;;;6.07;78.58
61478;BME280;47345;52.334;10.392;2024-02-14T02:16:09;100860.36;;;6.10;78.66
61478;BME280;47345;52.334;10.392;2024-02-14T02:18:40;100855.63;;;6.13;78.48
61478;BME280;47345;52.334;10.392;2024-02-14T02:21:12;100849.52;;;6.16;78.62
61478;BME280;47345;52.334;10.392;2024-02-14T02:23:42;100849.64;;;6.18;78.48
61478;BME280;47345;52.334;10.392;2024-02-14T02:26:13;100843.95;;;6.22;78.62
61478;BME280;47345;52.334;10.392;2024-02-14T02:28:44;100835.53;;;6.23;78.52
61478;BME280;47345;52.334;10.392;2024-02-14T02:31:15;100837.56;;;6.25;78.52
61478;BME280;47345;52.334;10.392;2024-02-14T02:33:45;100833.75;;;6.27;78.43
61478;BME280;47345;52.334;10.392;2024-02-14T02:36:16;100831.26;;;6.30;78.56
61478;BME280;47345;52.334;10.392;2024-02-14T02:38:47;100832.71;;;6.31;78.56
61478;BME280;47345;52.334;10.392;2024-02-14T02:41:18;100830.83;;;6.34;78.41
61478;BME280;47345;52.334;10.392;2024-02-14T02:43:48;100822.55;;;6.36;78.33
61478;BME280;47345;52.334;10.392;2024-02-14T02:46:19;100824.58;;;6.39;78.34
61478;BME280;47345;52.334;10.392;2024-02-14T02:48:51;100822.70;;;6.41;78.23
61478;BME280;47345;52.334;10.392;2024-02-14T02:51:24;100821.09;;;6.44;78.13
61478;BME280;47345;52.334;10.392;2024-02-14T02:53:55;100821.80;;;6.46;78.12
61478;BME280;47345;52.334;10.392;2024-02-14T02:56:26;100821.54;;;6.48;78.25
61478;BME280;47345;52.334;10.392;2024-02-14T02:58:57;100824.11;;;6.51;78.42
61478;BME280;47345;52.334;10.392;2024-02-14T03:01:27;100820.60;;;6.53;78.47
61478;BME280;47345;52.334;10.392;2024-02-14T03:04:00;100818.79;;;6.55;78.80
61478;BME280;47345;52.334;10.392;2024-02-14T03:06:32;100812.74;;;6.56;79.00
61478;BME280;47345;52.334;10.392;2024-02-14T03:09:03;100810.90;;;6.56;79.30
61478;BME280;47345;52.334;10.392;2024-02-14T03:11:35;100805.77;;;6.56;79.56
61478;BME280;47345;52.334;10.392;2024-02-14T03:14:06;100800.82;;;6.55;80.14
61478;BME280;47345;52.334;10.392;2024-02-14T03:16:37;100792.57;;;6.55;80.31
61478;BME280;47345;52.334;10.392;2024-02-14T03:19:08;100794.50;;;6.53;80.76
61478;BME280;47345;52.334;10.392;2024-02-14T03:21:39;100790.98;;;6.52;81.07
61478;BME280;47345;52.334;10.392;2024-02-14T03:24:10;100790.67;;;6.52;81.41
61478;BME280;47345;52.334;10.392;2024-02-14T03:26:41;100790.45;;;6.51;81.90
61478;BME280;47345;52.334;10.392;2024-02-14T03:29:11;100789.38;;;6.49;82.35
61478;BME280;47345;52.334;10.392;2024-02-14T03:31:42;100784.58;;;6.48;82.75
61478;BME280;47345;52.334;10.392;2024-02-14T03:34:13;100781.84;;;6.47;83.28
61478;BME280;47345;52.334;10.392;2024-02-14T03:36:43;100776.57;;;6.47;83.29
61478;BME280;47345;52.334;10.392;2024-02-14T03:39:14;100778.92;;;6.47;83.74
61478;BME280;47345;52.334;10.392;2024-02-14T03:41:46;100771.85;;;6.47;83.86
61478;BME280;47345;52.334;10.392;2024-02-14T03:44:17;100762.83;;;6.45;84.35
61478;BME280;47345;52.334;10.392;2024-02-14T03:46:47;100759.94;;;6.47;84.64
61478;BME280;47345;52.334;10.392;2024-02-14T03:49:18;100758.50;;;6.46;84.69
61478;BME280;47345;52.334;10.392;2024-02-14T03:51:49;100755.34;;;6.47;85.02
61478;BME280;47345;52.334;10.392;2024-02-14T03:54:22;100755.34;;;6.47;85.39
61478;BME280;47345;52.334;10.392;2024-02-14T03:56:53;100751.98;;;6.46;85.57
61478;BME280;47345;52.334;10.392;2024-02-14T03:59:24;100748.37;;;6.48;85.70
61478;BME280;47345;52.334;10.392;2024-02-14T04:01:55;100739.96;;;6.47;85.86
61478;BME280;47345;52.334;10.392;2024-02-14T04:04:27;100738.63;;;6.46;86.25
61478;BME280;47345;52.334;10.392;2024-02-14T04:06:58;100739.22;;;6.45;86.26
61478;BME280;47345;52.334;10.392;2024-02-14T04:09:32;100740.06;;;6.46;86.77
61478;BME280;47345;52.334;10.392;2024-02-14T04:12:03;100733.30;;;6.46;86.89
61478;BME280;47345;52.334;10.392;2024-02-14T04:14:34;100735.45;;;6.48;86.84
61478;BME280;47345;52.334;10.392;2024-02-14T04:17:05;100732.09;;;6.49;86.91
61478;BME280;47345;52.334;10.392;2024-02-14T04:19:37;100728.88;;;6.50;86.93
61478;BME280;47345;52.334;10.392;2024-02-14T04:22:08;100732.55;;;6.52;86.83
61478;BME280;47345;52.334;10.392;2024-02-14T04:24:38;100724.30;;;6.51;86.87
61478;BME280;47345;52.334;10.392;2024-02-14T04:27:09;100724.79;;;6.53;86.76
61478;BME280;47345;52.334;10.392;2024-02-14T04:29:39;100725.92;;;6.57;86.70
61478;BME280;47345;52.334;10.392;2024-02-14T04:32:10;100716.23;;;6.59;86.44
61478;BME280;47345;52.334;10.392;2024-02-14T04:34:40;100717.27;;;6.61;86.31
61478;BME280;47345;52.334;10.392;2024-02-14T04:37:13;100709.98;;;6.61;86.21
61478;BME280;47345;52.334;10.392;2024-02-14T04:39:44;100705.35;;;6.64;86.26
61478;BME280;47345;52.334;10.392;2024-02-14T04:42:16;100707.41;;;6.65;86.39
61478;BME280;47345;52.334;10.392;2024-02-14T04:44:47;100703.94;;;6.65;86.35
61478;BME280;47345;52.334;10.392;2024-02-14T04:47:17;100696.23;;;6.66;86.38
61478;BME280;47345;52.334;10.392;2024-02-14T04:49:50;100692.86;;;6.67;86.30
61478;BME280;47345;52.334;10.392;2024-02-14T04:52:21;100689.27;;;6.69;86.06
61478;BME280;47345;52.334;10.392;2024-02-14T04:54:51;100691.40;;;6.70;85.98
61478;BME280;47345;52.334;10.392;2024-02-14T04:57:21;100684.30;;;6.70;85.78
61478;BME280;47345;52.334;10.392;2024-02-14T04:59:52;100684.23;;;6.74;85.94
61478;BME280;47345;52.334;10.392;2024-02-14T05:02:23;100681.91;;;6.75;85.86
61478;BME280;47345;52.334;10.392;2024-02-14T05:04:53;100682.61;;;6.77;85.63
61478;BME280;47345;52.334;10.392;2024-02-14T05:07:24;100682.73;;;6.78;85.78
61478;BME280;47345;52.334;10.392;2024-02-14T05:09:54;100685.30;;;6.77;85.98
61478;BME280;47345;52.334;10.392;2024-02-14T05:12:26;100688.77;;;6.76;86.30
61478;BME280;47345;52.334;10.392;2024-02-14T05:14:56;100685.08;;;6.75;86.38
61478;BME280;47345;52.334;10.392;2024-02-14T05:17:30;100688.83;;;6.72;86.76
61478;BME280;47345;52.334;10.392;2024-02-14T05:20:01;100685.86;;;6.70;87.03
61478;BME280;47345;52.334;10.392;2024-02-14T05:22:32;100681.27;;;6.69;87.15
61478;BME280;47345;52.334;10.392;2024-02-14T05:25:03;100685.36;;;6.66;87.52
61478;BME280;47345;52.334;10.392;2024-02-14T05:27:34;100680.54;;;6.64;87.87
61478;BME280;47345;52.334;10.392;2024-02-14T05:30:07;100681.31;;;6.62;88.19
61478;BME280;47345;52.334;10.392;2024-02-14T05:32:38;100683.77;;;6.59;88.57
61478;BME280;47345;52.334;10.392;2024-02-14T05:35:09;100679.98;;;6.58;88.80
61478;BME280;47345;52.334;10.392;2024-02-14T05:37:40;100685.86;;;6.57;89.00
61478;BME280;47345;52.334;10.392;2024-02-14T05:40:11;100680.48;;;6.55;89.49
61478;BME280;47345;52.334;10.392;2024-02-14T05:42:42;100680.18;;;6.55;89.62
61478;BME280;47345;52.334;10.392;2024-02-14T05:45:15;100677.91;;;6.54;89.90
61478;BME280;47345;52.334;10.392;2024-02-14T05:47:46;100678.31;;;6.54;90.28
61478;BME280;47345;52.334;10.392;2024-02-14T05:50:17;100680.08;;;6.54;90.54
61478;BME280;47345;52.334;10.392;2024-02-14T05:52:48;100681.34;;;6.54;90.70
61478;BME280;47345;52.334;10.392;2024-02-14T05:55:18;100678.92;;;6.55;90.72
61478;BME280;47345;52.334;10.392;2024-02-14T05:57:49;100679.23;;;6.55;90.99
61478;BME280;47345;52.334;10.392;2024-02-14T06:00:21;100677.05;;;6.55;91.02
61478;BME280;47345;52.334;10.392;2024-02-14T06:02:56;100670.84;;;6.54;91.30
61478;BME280;47345;52.334;10.392;2024-02-14T06:05:27;100672.02;;;6.55;91.51
61478;BME280;47345;52.334;10.392;2024-02-14T06:07:58;100672.56;;;6.55;91.70
61478;BME280;47345;52.334;10.392;2024-02-14T06:10:28;100669.14;;;6.55;91.73
61478;BME280;47345;52.334;10.392;2024-02-14T06:12:59;100669.13;;;6.56;91.95
61478;BME280;47345;52.334;10.392;2024-02-14T06:15:29;100665.67;;;6.58;92.21
61478;BME280;47345;52.334;10.392;2024-02-14T06:18:00;100664.73;;;6.59;92.24
61478;BME280;47345;52.334;10.392;2024-02-14T06:20:31;100662.17;;;6.61;92.27
61478;BME280;47345;52.334;10.392;2024-02-14T06:23:01;100663.86;;;6.64;92.36
61478;BME280;47345;52.334;10.392;2024-02-14T06:25:34;100667.00;;;6.67;92.29
61478;BME280;47345;52.334;10.392;2024-02-14T06:28:05;100663.02;;;6.68;92.41
61478;BME280;47345;52.334;10.392;2024-02-14T06:30:36;100667.11;;;6.70;92.29
61478;BME280;47345;52.334;10.392;2024-02-14T06:33:06;100669.44;;;6.72;92.42
61478;BME280;47345;52.334;10.392;2024-02-14T06:35:37;100669.62;;;6.74;92.48
61478;BME280;47345;52.334;10.392;2024-02-14T06:38:08;100673.25;;;6.75;92.54
61478;BME280;47345;52.334;10.392;2024-02-14T06:40:38;100677.27;;;6.78;92.55
61478;BME280;47345;52.334;10.392;2024-02-14T06:43:09;100679.89;;;6.80;92.60
61478;BME280;47345;52.334;10.392;2024-02-14T06:45:41;100683.27;;;6.84;92.34
61478;BME280;47345;52.334;10.392;2024-02-14T06:48:13;100683.10;;;6.87;92.43
61478;BME280;47345;52.334;10.392;2024-02-14T06:50:43;100686.23;;;6.89;92.39
61478;BME280;47345;52.334;10.392;2024-02-14T06:53:14;100690.55;;;6.91;92.46
61478;BME280;47345;52.334;10.392;2024-02-14T06:55:46;100694.73;;;6.92;92.45
61478;BME280;47345;52.334;10.392;2024-02-14T06:58:17;100696.72;;;6.94;92.47
61478;BME280;47345;52.334;10.392;2024-02-14T07:00:48;100697.45;;;6.96;92.49
61478;BME280;47345;52.334;10.392;2024-02-14T07:03:19;100697.66;;;6.96;92.55
61478;BME280;47345;52.334;10.392;2024-02-14T07:05:49;100698.02;;;6.97;92.76
61478;BME280;47345;52.334;10.392;2024-02-14T07:08:21;100702.46;;;6.98;92.91
61478;BME280;47345;52.334;10.392;2024-02-14T07:10:53;100704.40;;;6.98;93.00
61478;BME280;47345;52.334;10.392;2024-02-14T07:13:24;100705.20;;;6.99;92.94
61478;BME280;47345;52.334;10.392;2024-02-14T07:15:54;100706.96;;;7.01;93.15
61478;BME280;47345;52.334;10.392;2024-02-14T07:18:24;100705.63;;;7.02;93.38
61478;BME280;47345;52.334;10.392;2024-02-14T07:20:55;100707.61;;;7.02;93.48
61478;BME280;47345;52.334;10.392;2024-02-14T07:23:26;100706.23;;;7.03;93.57
61478;BME280;47345;52.334;10.392;2024-02-14T07:25:56;100710.09;;;7.04;93.84
61478;BME280;47345;52.334;10.392;2024-02-14T07:28:26;100710.80;;;7.04;94.03
61478;BME280;47345;52.334;10.392;2024-02-14T07:30:57;100709.37;;;7.05;93.92
61478;BME280;47345;52.334;10.392;2024-02-14T07:33:27;100711.50;;;7.05;94.16
61478;BME280;47345;52.334;10.392;2024-02-14T07:35:58;100710.40;;;7.07;94.39
61478;BME280;47345;52.334;10.392;2024-02-14T07:38:29;100709.71;;;7.08;94.36
61478;BME280;47345;52.334;10.392;2024-02-14T07:41:00;100705.56;;;7.08;94.60
61478;BME280;47345;52.334;10.392;2024-02-14T07:43:30;100707.76;;;7.09;94.88
61478;BME280;47345;52.334;10.392;2024-02-14T07:46:01;100709.11;;;7.11;94.79
61478;BME280;47345;52.334;10.392;2024-02-14T07:48:31;100708.79;;;7.15;95.11
61478;BME280;47345;52.334;10.392;2024-02-14T07:51:02;100704.93;;;7.18;95.15
61478;BME280;47345;52.334;10.392;2024-02-14T07:53:32;100706.09;;;7.20;95.18
61478;BME280;47345;52.334;10.392;2024-02-14T07:56:03;100705.94;;;7.25;95.43
61478;BME280;47345;52.334;10.392;2024-02-14T07:58:34;100708.29;;;7.28;95.45
61478;BME280;47345;52.334;10.392;2024-02-14T08:01:05;100707.21;;;7.31;95.52
61478;BME280;47345;52.334;10.392;2024-02-14T08:03:35;100703.72;;;7.33;95.59
61478;BME280;47345;52.334;10.392;2024-02-14T08:06:06;100709.04;;;7.38;95.60
61478;BME280;47345;52.334;10.392;2024-02-14T08:08:37;100708.96;;;7.43;95.63
61478;BME280;47345;52.334;10.392;2024-02-14T08:11:07;100710.23;;;7.49;95.66
61478;BME280;47345;52.334;10.392;2024-02-14T08:13:38;100711.73;;;7.55;95.72
61478;BME280;47345;52.334;10.392;2024-02-14T08:16:09;100712.52;;;7.58;95.52
61478;BME280;47345;52.334;10.392;2024-02-14T08:18:39;100714.73;;;7.60;95.59
61478;BME280;47345;52.334;10.392;2024-02-14T08:21:13;100715.46;;;7.62;95.65
61478;BME280;47345;52.334;10.392;2024-02-14T08:23:43;100715.44;;;7.62;95.59
61478;BME280;47345;52.334;10.392;2024-02-14T08:26:15;100716.23;;;7.63;95.65
61478;BME280;47345;52.334;10.392;2024-02-14T08:28:46;100718.65;;;7.62;95.58
61478;BME280;47345;52.334;10.392;2024-02-14T08:31:17;100724.91;;;7.63;95.81
61478;BME280;47345;52.334;10.392;2024-02-14T08:33:48;100720.79;;;7.66;95.93
61478;BME280;47345;52.334;10.392;2024-02-14T08:36:18;100719.38;;;7.70;95.81
61478;BME280;47345;52.334;10.392;2024-02-14T08:38:49;100719.19;;;7.73;95.85
61478;BME280;47345;52.334;10.392;2024-02-14T08:41:20;100718.11;;;7.77;95.90
61478;BME280;47345;52.334;10.392;2024-02-14T08:43:52;100719.59;;;7.82;95.89
61478;BME280;47345;52.334;10.392;2024-02-14T08:46:22;100721.91;;;7.87;95.88
61478;BME280;47345;52.334;10.392;2024-02-14T08:48:54;100720.91;;;7.90;95.69
61478;BME280;47345;52.334;10.392;2024-02-14T08:51:25;100717.43;;;7.90;95.76
61478;BME280;47345;52.334;10.392;2024-02-14T08:53:55;100721.35;;;7.96;95.67
61478;BME280;47345;52.334;10.392;2024-02-14T08:56:28;100723.15;;;8.00;95.71
61478;BME280;47345;52.334;10.392;2024-02-14T08:59:02;100725.50;;;8.03;95.66
61478;BME280;47345;52.334;10.392;2024-02-14T09:01:34;100724.81;;;8.05;95.65
61478;BME280;47345;52.334;10.392;2024-02-14T09:04:05;100725.17;;;8.07;95.76
61478;BME280;47345;52.334;10.392;2024-02-14T09:06:37;100729.59;;;8.08;95.82
61478;BME280;47345;52.334;10.392;2024-02-14T09:09:10;100728.76;;;8.09;95.82
61478;BME280;47345;52.334;10.392;2024-02-14T09:11:41;100726.89;;;8.06;95.79
61478;BME280;47345;52.334;10.392;2024-02-14T09:14:11;100733.52;;;8.11;95.91
61478;BME280;47345;52.334;10.392;2024-02-14T09:16:42;100735.95;;;8.14;96.04
61478;BME280;47345;52.334;10.392;2024-02-14T09:19:15;100735.89;;;8.17;96.12
61478;BME280;47345;52.334;10.392;2024-02-14T09:21:46;100742.31;;;8.21;96.12
61478;BME280;47345;52.334;10.392;2024-02-14T09:24:17;100743.19;;;8.24;96.09
61478;BME280;47345;52.334;10.392;2024-02-14T09:26:47;100742.99;;;8.29;96.14
61478;BME280;47345;52.334;10.392;2024-02-14T09:29:18;100740.82;;;8.33;96.07
61478;BME280;47345;52.334;10.392;2024-02-14T09:31:51;100743.60;;;8.34;96.02
61478;BME280;47345;52.334;10.392;2024-02-14T09:34:21;100746.81;;;8.36;96.15
61478;BME280;47345;52.334;10.392;2024-02-14T09:36:52;100749.64;;;8.37;96.22
61478;BME280;47345;52.334;10.392;2024-02-14T09:39:22;100750.44;;;8.39;96.25
61478;BME280;47345;52.334;10.392;2024-02-14T09:41:57;100750.61;;;8.44;96.35
61478;BME280;47345;52.334;10.392;2024-02-14T09:44:30;100751.76;;;8.51;96.55
61478;BME280;47345;52.334;10.392;2024-02-14T09:47:02;100751.10;;;8.59;96.34
61478;BME280;47345;52.334;10.392;2024-02-14T09:49:36;100751.08;;;8.65;96.29
61478;BME280;47345;52.334;10.392;2024-02-14T09:52:10;100755.35;;;8.73;96.29
61478;BME280;47345;52.334;10.392;2024-02-14T09:54:41;100753.12;;;8.85;96.14
61478;BME280;47345;52.334;10.392;2024-02-14T09:57:12;100755.73;;;8.92;96.00
61478;BME280;47345;52.334;10.392;2024-02-14T09:59:45;100760.27;;;8.95;95.88
61478;BME280;47345;52.334;10.392;2024-02-14T10:02:17;100763.33;;;9.00;95.88
61478;BME280;47345;52.334;10.392;2024-02-14T10:08:34;100762.73;;;9.02;95.69
61478;BME280;47345;52.334;10.392;2024-02-14T10:11:10;100762.37;;;9.01;95.61
61478;BME280;47345;52.334;10.392;2024-02-14T10:13:40;100767.10;;;8.99;95.63
61478;BME280;47345;52.334;10.392;2024-02-14T10:16:11;100770.70;;;8.99;95.61
61478;BME280;47345;52.334;10.392;2024-02-14T10:18:42;100775.80;;;9.03;95.63
61478;BME280;47345;52.334;10.392;2024-02-14T10:21:17;100777.10;;;9.07;95.53
61478;BME280;47345;52.334;10.392;2024-02-14T10:23:48;100775.70;;;9.09;95.51
61478;BME280;47345;52.334;10.392;2024-02-14T10:26:21;100781.71;;;9.10;95.51
61478;BME280;47345;52.334;10.392;2024-02-14T10:28:52;100783.96;;;9.13;95.55
61478;BME280;47345;52.334;10.392;2024-02-14T10:31:23;100783.31;;;9.16;95.67
61478;BME280;47345;52.334;10.392;2024-02-14T10:33:55;100789.80;;;9.23;95.49
61478;BME280;47345;52.334;10.392;2024-02-14T10:36:27;100794.00;;;9.28;95.60
61478;BME280;47345;52.334;10.392;2024-02-14T10:38:59;100796.73;;;9.35;95.53
61478;BME280;47345;52.334;10.392;2024-02-14T10:41:33;100794.43;;;9.41;95.34
61478;BME280;47345;52.334;10.392;2024-02-14T10:44:05;100797.43;;;9.47;95.11
61478;BME280;47345;52.334;10.392;2024-02-14T10:46:37;100805.88;;;9.55;94.95
61478;BME280;47345;52.334;10.392;2024-02-14T10:49:11;100801.77;;;9.58;94.84
61478;BME280;47345;52.334;10.392;2024-02-14T10:51:44;100807.21;;;9.60;94.91
61478;BME280;47345;52.334;10.392;2024-02-14T10:54:19;100808.39;;;9.61;94.90
61478;BME280;47345;52.334;10.392;2024-02-14T10:56:51;100804.95;;;9.61;94.86
61478;BME280;47345;52.334;10.392;2024-02-14T10:59:25;100807.31;;;9.62;94.90
61478;BME280;47345;52.334;10.392;2024-02-14T11:01:56;100807.83;;;9.71;95.13
61478;BME280;47345;52.334;10.392;2024-02-14T11:04:27;100807.95;;;9.89;94.87
61478;BME280;47345;52.334;10.392;2024-02-14T11:06:59;100810.76;;;10.13;94.47
61478;BME280;47345;52.334;10.392;2024-02-14T11:09:37;100809.11;;;10.31;93.93
61478;BME280;47345;52.334;10.392;2024-02-14T11:12:09;100802.49;;;10.43;93.36
61478;BME280;47345;52.334;10.392;2024-02-14T11:14:43;100812.61;;;10.46;92.44
61478;BME280;47345;52.334;10.392;2024-02-14T11:17:15;100804.59;;;10.49;92.18
61478;BME280;47345;52.334;10.392;2024-02-14T11:19:49;100808.40;;;10.56;92.14
61478;BME280;47345;52.334;10.392;2024-02-14T11:22:21;100808.13;;;10.67;92.20
61478;BME280;47345;52.334;10.392;2024-02-14T11:24:52;100811.73;;;10.78;92.00
61478;BME280;47345;52.334;10.392;2024-02-14T11:27:23;100818.11;;;10.86;91.76
61478;BME280;47345;52.334;10.392;2024-02-14T11:30:07;100820.60;;;10.88;91.31
61478;BME280;47345;52.334;10.392;2024-02-14T11:32:38;100827.00;;;10.86;91.22
61478;BME280;47345;52.334;10.392;2024-02-14T11:35:13;100819.88;;;10.85;91.02
61478;BME280;47345;52.334;10.392;2024-02-14T11:37:44;100823.96;;;10.87;91.05
61478;BME280;47345;52.334;10.392;2024-02-14T11:40:22;100828.61;;;10.91;90.97
61478;BME280;47345;52.334;10.392;2024-02-14T11:42:52;100829.32;;;10.92;90.91
61478;BME280;47345;52.334;10.392;2024-02-14T11:45:23;100831.36;;;10.93;90.77
61478;BME280;47345;52.334;10.392;2024-02-14T11:47:53;100829.16;;;10.93;90.67
61478;BME280;47345;52.334;10.392;2024-02-14T11:50:24;100832.79;;;10.97;90.68
61478;BME280;47345;52.334;10.392;2024-02-14T11:52:55;100832.71;;;11.01;90.61
61478;BME280;47345;52.334;10.392;2024-02-14T11:55:30;100832.67;;;11.05;90.54
61478;BME280;47345;52.334;10.392;2024-02-14T11:58:02;100832.90;;;11.09;90.29
61478;BME280;47345;52.334;10.392;2024-02-14T12:00:32;100832.01;;;11.12;89.81
61478;BME280;47345;52.334;10.392;2024-02-14T12:03:05;100833.91;;;11.11;89.82
61478;BME280;47345;52.334;10.392;2024-02-14T12:05:38;100833.28;;;11.10;89.78
61478;BME280;47345;52.334;10.392;2024-02-14T12:08:09;100834.02;;;11.13;89.63
61478;BME280;47345;52.334;10.392;2024-02-14T12:10:41;100831.74;;;11.17;89.42
61478;BME280;47345;52.334;10.392;2024-02-14T12:13:17;100835.34;;;11.26;89.41
61478;BME280;47345;52.334;10.392;2024-02-14T12:15:48;100833.88;;;11.33;89.39
61478;BME280;47345;52.334;10.392;2024-02-14T12:18:20;100838.76;;;11.36;89.42
61478;BME280;47345;52.334;10.392;2024-02-14T12:20:52;100840.45;;;11.39;89.06
61478;BME280;47345;52.334;10.392;2024-02-14T12:23:35;100842.64;;;11.39;89.03
61478;BME280;47345;52.334;10.392;2024-02-14T12:26:06;100847.32;;;11.41;89.02
61478;BME280;47345;52.334;10.392;2024-02-14T12:28:40;100843.35;;;11.39;88.86
61478;BME280;47345;52.334;10.392;2024-02-14T12:31:11;100848.79;;;11.35;88.96
61478;BME280;47345;52.334;10.392;2024-02-14T12:33:51;100851.48;;;11.32;89.12
61478;BME280;47345;52.334;10.392;2024-02-14T12:36:24;100854.56;;;11.34;88.98
61478;BME280;47345;52.334;10.392;2024-02-14T12:38:55;100849.25;;;11.37;88.73
61478;BME280;47345;52.334;10.392;2024-02-14T12:41:26;100852.88;;;11.41;88.78
61478;BME280;47345;52.334;10.392;2024-02-14T12:43:59;100858.08;;;11.41;88.75
61478;BME280;47345;52.334;10.392;2024-02-14T12:46:30;100860.71;;;11.40;88.67
61478;BME280;47345;52.334;10.392;2024-02-14T12:49:00;100860.59;;;11.39;88.72
61478;BME280;47345;52.334;10.392;2024-02-14T12:51:33;100856.92;;;11.37;88.75
61478;BME280;47345;52.334;10.392;2024-02-14T12:54:05;100863.45;;;11.34;88.73
61478;BME280;47345;52.334;10.392;2024-02-14T12:56:38;100868.04;;;11.36;89.02
61478;BME280;47345;52.334;10.392;2024-02-14T12:59:09;100864.96;;;11.39;89.06
61478;BME280;47345;52.334;10.392;2024-02-14T13:01:44;100868.81;;;11.42;89.01
61478;BME280;47345;52.334;10.392;2024-02-14T13:04:17;100869.36;;;11.43;88.86
61478;BME280;47345;52.334;10.392;2024-02-14T13:06:47;100868.01;;;11.41;88.83
61478;BME280;47345;52.334;10.392;2024-02-14T13:09:18;100864.42;;;11.38;88.81
61478;BME280;47345;52.334;10.392;2024-02-14T13:11:49;100865.09;;;11.37;88.84